sensor_id;sensor_type;location;lat;lon;timestamp;pressure;altitude;pressure_sealevel;temperature;humidity
9249;BME280;4660;41.768;26.198;2023-04-08T00:00:55;101216.59;;;8.59;100.00
9249;BME280;4660;41.768;26.198;2023-04-08T00:03:21;101220.59;;;8.53;100.00
9249;BME280;4660;41.768;26.198;2023-04-08T00:05:46;101235.88;;;8.40;100.00
9249;BME280;4660;41.768;26.198;2023-04-08T00:08:12;101233.06;;;8.41;100.00
9249;BME280;4660;41.768;26.198;2023-04-08T00:10:37;101239.47;;;8.51;100.00
9249;BME280;4660;41.768;26.198;2023-04-08T00:13:04;101229.91;;;8.36;100.00
9249;BME280;4660;41.768;26.198;2023-04-08T00:15:29;101234.56;;;8.45;100.00
9249;BME280;4660;41.768;26.198;2023-04-08T00:17:55;101226.97;;;8.39;100.00
9249;BME280;4660;41.768;26.198;2023-04-08T00:20:22;101236.69;;;8.53;100.00
9249;BME280;4660;41.768;26.198;2023-04-08T00:22:48;101227.59;;;8.67;100.00
9249;BME280;4660;41.768;26.198;2023-04-08T00:25:13;101231.47;;;8.63;100.00
9249;BME280;4660;41.768;26.198;2023-04-08T00:27:39;101230.22;;;8.55;100.00
9249;BME280;4660;41.768;26.198;2023-04-08T00:30:05;101230.19;;;8.44;100.00
9249;BME280;4660;41.768;26.198;2023-04-08T00:32:31;101226.88;;;8.28;100.00
9249;BME280;4660;41.768;26.198;2023-04-08T00:34:57;101213.59;;;8.26;100.00
9249;BME280;4660;41.768;26.198;2023-04-08T00:37:23;101221.53;;;8.28;100.00
9249;BME280;4660;41.768;26.198;2023-04-08T00:39:50;101200.78;;;8.19;100.00
9249;BME280;4660;41.768;26.198;2023-04-08T00:42:16;101220.06;;;8.24;100.00
9249;BME280;4660;41.768;26.198;2023-04-08T00:44:41;101227.09;;;8.38;100.00
9249;BME280;4660;41.768;26.198;2023-04-08T00:47:11;101219.78;;;8.16;100.00
9249;BME280;4660;41.768;26.198;2023-04-08T00:49:37;101236.97;;;8.37;100.00
9249;BME280;4660;41.768;26.198;2023-04-08T00:52:03;101236.81;;;8.51;100.00
9249;BME280;4660;41.768;26.198;2023-04-08T00:54:29;101227.34;;;8.70;100.00
9249;BME280;4660;41.768;26.198;2023-04-08T00:56:56;101227.22;;;8.71;100.00
9249;BME280;4660;41.768;26.198;2023-04-08T00:59:26;101228.75;;;8.51;100.00
9249;BME280;4660;41.768;26.198;2023-04-08T01:07:21;101232.22;;;8.41;100.00
9249;BME280;4660;41.768;26.198;2023-04-08T01:09:53;101227.72;;;8.41;100.00
9249;BME280;4660;41.768;26.198;2023-04-08T01:12:28;101212.38;;;8.07;100.00
9249;BME280;4660;41.768;26.198;2023-04-08T01:15:05;101232.72;;;8.22;100.00
9249;BME280;4660;41.768;26.198;2023-04-08T01:17:33;101241.63;;;8.46;100.00
9249;BME280;4660;41.768;26.198;2023-04-08T01:20:01;101237.66;;;8.52;100.00
9249;BME280;4660;41.768;26.198;2023-04-08T01:22:50;101245.50;;;8.42;100.00
9249;BME280;4660;41.768;26.198;2023-04-08T01:25:26;101239.09;;;8.45;100.00
9249;BME280;4660;41.768;26.198;2023-04-08T01:27:55;101218.84;;;8.28;100.00
9249;BME280;4660;41.768;26.198;2023-04-08T01:30:23;101240.63;;;8.36;100.00
9249;BME280;4660;41.768;26.198;2023-04-08T01:32:52;101248.28;;;8.17;100.00
9249;BME280;4660;41.768;26.198;2023-04-08T01:35:18;101244.91;;;8.26;100.00
9249;BME280;4660;41.768;26.198;2023-04-08T01:37:46;101235.69;;;8.30;100.00
9249;BME280;4660;41.768;26.198;2023-04-08T01:40:13;101232.03;;;8.31;100.00
9249;BME280;4660;41.768;26.198;2023-04-08T01:42:41;101235.44;;;8.33;100.00
9249;BME280;4660;41.768;26.198;2023-04-08T01:45:08;101242.34;;;8.37;100.00
9249;BME280;4660;41.768;26.198;2023-04-08T01:47:36;101249.41;;;8.38;100.00
9249;BME280;4660;41.768;26.198;2023-04-08T01:50:03;101247.06;;;8.21;100.00
9249;BME280;4660;41.768;26.198;2023-04-08T01:52:32;101250.09;;;8.16;100.00
9249;BME280;4660;41.768;26.198;2023-04-08T01:54:59;101234.59;;;8.09;100.00
9249;BME280;4660;41.768;26.198;2023-04-08T01:57:27;101249.69;;;8.10;100.00
9249;BME280;4660;41.768;26.198;2023-04-08T01:59:59;101245.63;;;7.67;100.00
9249;BME280;4660;41.768;26.198;2023-04-08T02:02:26;101249.81;;;7.59;100.00
9249;BME280;4660;41.768;26.198;2023-04-08T02:04:53;101262.84;;;7.89;100.00
9249;BME280;4660;41.768;26.198;2023-04-08T02:07:19;101248.63;;;7.99;100.00
9249;BME280;4660;41.768;26.198;2023-04-08T02:09:45;101246.03;;;8.11;100.00
9249;BME280;4660;41.768;26.198;2023-04-08T02:12:10;101255.50;;;8.04;100.00
9249;BME280;4660;41.768;26.198;2023-04-08T02:14:36;101246.88;;;7.87;100.00
9249;BME280;4660;41.768;26.198;2023-04-08T02:17:10;101260.78;;;7.92;100.00
9249;BME280;4660;41.768;26.198;2023-04-08T02:22:30;101260.16;;;7.89;100.00
9249;BME280;4660;41.768;26.198;2023-04-08T02:24:58;101244.34;;;7.60;100.00
9249;BME280;4660;41.768;26.198;2023-04-08T02:27:27;101242.34;;;7.38;100.00
9249;BME280;4660;41.768;26.198;2023-04-08T02:29:55;101247.75;;;7.62;100.00
9249;BME280;4660;41.768;26.198;2023-04-08T02:32:22;101235.03;;;7.53;100.00
9249;BME280;4660;41.768;26.198;2023-04-08T02:34:49;101244.03;;;7.65;100.00
9249;BME280;4660;41.768;26.198;2023-04-08T02:37:15;101254.09;;;7.61;100.00
9249;BME280;4660;41.768;26.198;2023-04-08T02:39:40;101251.28;;;7.63;100.00
9249;BME280;4660;41.768;26.198;2023-04-08T02:42:06;101236.44;;;7.33;100.00
9249;BME280;4660;41.768;26.198;2023-04-08T02:44:32;101250.38;;;7.26;100.00
9249;BME280;4660;41.768;26.198;2023-04-08T02:46:57;101246.81;;;7.12;100.00
9249;BME280;4660;41.768;26.198;2023-04-08T02:49:22;101212.91;;;7.00;100.00
9249;BME280;4660;41.768;26.198;2023-04-08T02:51:48;101245.41;;;7.07;100.00
9249;BME280;4660;41.768;26.198;2023-04-08T02:54:13;101232.56;;;6.86;100.00
9249;BME280;4660;41.768;26.198;2023-04-08T02:56:39;101226.50;;;7.10;100.00
9249;BME280;4660;41.768;26.198;2023-04-08T02:59:05;101239.22;;;7.19;100.00
9249;BME280;4660;41.768;26.198;2023-04-08T03:01:31;101243.41;;;7.23;100.00
9249;BME280;4660;41.768;26.198;2023-04-08T03:03:56;101245.78;;;7.15;100.00
9249;BME280;4660;41.768;26.198;2023-04-08T03:06:22;101245.13;;;7.37;100.00
9249;BME280;4660;41.768;26.198;2023-04-08T03:08:47;101249.81;;;7.46;100.00
9249;BME280;4660;41.768;26.198;2023-04-08T03:11:12;101233.34;;;7.39;100.00
9249;BME280;4660;41.768;26.198;2023-04-08T03:13:38;101258.59;;;7.10;100.00
9249;BME280;4660;41.768;26.198;2023-04-08T03:16:04;101210.63;;;6.81;100.00
9249;BME280;4660;41.768;26.198;2023-04-08T03:18:29;101248.31;;;7.04;100.00
9249;BME280;4660;41.768;26.198;2023-04-08T03:20:55;101236.75;;;7.03;100.00
9249;BME280;4660;41.768;26.198;2023-04-08T03:23:21;101246.19;;;7.09;100.00
9249;BME280;4660;41.768;26.198;2023-04-08T03:25:46;101247.47;;;7.16;100.00
9249;BME280;4660;41.768;26.198;2023-04-08T03:28:12;101253.88;;;7.01;100.00
9249;BME280;4660;41.768;26.198;2023-04-08T03:30:38;101258.56;;;6.84;100.00
9249;BME280;4660;41.768;26.198;2023-04-08T03:33:04;101250.94;;;6.39;100.00
9249;BME280;4660;41.768;26.198;2023-04-08T03:35:32;101264.13;;;6.27;100.00
9249;BME280;4660;41.768;26.198;2023-04-08T03:37:58;101255.94;;;6.30;100.00
9249;BME280;4660;41.768;26.198;2023-04-08T03:40:23;101242.28;;;6.08;100.00
9249;BME280;4660;41.768;26.198;2023-04-08T03:42:49;101264.72;;;6.32;100.00
9249;BME280;4660;41.768;26.198;2023-04-08T03:45:14;101265.66;;;6.31;100.00
9249;BME280;4660;41.768;26.198;2023-04-08T03:47:40;101273.78;;;6.30;100.00
9249;BME280;4660;41.768;26.198;2023-04-08T03:50:06;101277.53;;;6.13;100.00
9249;BME280;4660;41.768;26.198;2023-04-08T03:52:31;101274.63;;;6.03;100.00
9249;BME280;4660;41.768;26.198;2023-04-08T03:54:57;101268.59;;;5.71;100.00
9249;BME280;4660;41.768;26.198;2023-04-08T03:57:22;101278.63;;;5.53;100.00
9249;BME280;4660;41.768;26.198;2023-04-08T03:59:48;101268.34;;;5.47;100.00
9249;BME280;4660;41.768;26.198;2023-04-08T04:02:17;101269.19;;;5.48;100.00
9249;BME280;4660;41.768;26.198;2023-04-08T04:04:46;101283.38;;;5.63;100.00
9249;BME280;4660;41.768;26.198;2023-04-08T04:07:32;101298.53;;;5.76;100.00
9249;BME280;4660;41.768;26.198;2023-04-08T04:10:31;101165.25;;;5.18;100.00
9249;BME280;4660;41.768;26.198;2023-04-08T04:13:36;101308.00;;;6.11;100.00
9249;BME280;4660;41.768;26.198;2023-04-08T04:21:19;101220.56;;;5.29;100.00
9249;BME280;4660;41.768;26.198;2023-04-08T04:29:50;101285.19;;;5.76;100.00
9249;BME280;4660;41.768;26.198;2023-04-08T04:32:36;101203.44;;;5.33;100.00
9249;BME280;4660;41.768;26.198;2023-04-08T05:02:21;101166.75;;;5.92;100.00
9249;BME280;4660;41.768;26.198;2023-04-08T05:05:08;101273.41;;;6.49;100.00
9249;BME280;4660;41.768;26.198;2023-04-08T05:07:37;101325.16;;;7.02;100.00
9249;BME280;4660;41.768;26.198;2023-04-08T05:10:06;101327.66;;;7.30;100.00
9249;BME280;4660;41.768;26.198;2023-04-08T05:12:40;101260.53;;;7.08;100.00
9249;BME280;4660;41.768;26.198;2023-04-08T05:15:06;101302.84;;;7.54;100.00
9249;BME280;4660;41.768;26.198;2023-04-08T05:17:34;101291.38;;;7.52;100.00
9249;BME280;4660;41.768;26.198;2023-04-08T05:20:03;101331.63;;;7.76;100.00
9249;BME280;4660;41.768;26.198;2023-04-08T05:22:29;101274.13;;;7.56;100.00
9249;BME280;4660;41.768;26.198;2023-04-08T05:24:57;101311.25;;;7.98;100.00
9249;BME280;4660;41.768;26.198;2023-04-08T05:27:23;101333.59;;;8.23;100.00
9249;BME280;4660;41.768;26.198;2023-04-08T05:29:54;101330.25;;;8.32;100.00
9249;BME280;4660;41.768;26.198;2023-04-08T05:32:20;101321.91;;;8.37;100.00
9249;BME280;4660;41.768;26.198;2023-04-08T05:34:50;101333.63;;;8.60;100.00
9249;BME280;4660;41.768;26.198;2023-04-08T05:37:21;101337.69;;;8.65;100.00
9249;BME280;4660;41.768;26.198;2023-04-08T05:39:59;101326.16;;;8.76;100.00
9249;BME280;4660;41.768;26.198;2023-04-08T05:42:29;101331.44;;;8.89;100.00
9249;BME280;4660;41.768;26.198;2023-04-08T05:44:57;101341.88;;;9.04;100.00
9249;BME280;4660;41.768;26.198;2023-04-08T05:47:23;101270.66;;;8.76;100.00
9249;BME280;4660;41.768;26.198;2023-04-08T05:49:49;101257.00;;;8.32;100.00
9249;BME280;4660;41.768;26.198;2023-04-08T05:52:15;101246.28;;;8.44;100.00
9249;BME280;4660;41.768;26.198;2023-04-08T05:54:44;101332.00;;;9.05;100.00
9249;BME280;4660;41.768;26.198;2023-04-08T05:57:13;101264.25;;;8.90;100.00
9249;BME280;4660;41.768;26.198;2023-04-08T05:59:42;101252.31;;;8.94;100.00
9249;BME280;4660;41.768;26.198;2023-04-08T06:02:17;101339.53;;;9.35;100.00
9249;BME280;4660;41.768;26.198;2023-04-08T06:04:44;101282.28;;;9.34;100.00
9249;BME280;4660;41.768;26.198;2023-04-08T06:07:10;101247.00;;;9.28;100.00
9249;BME280;4660;41.768;26.198;2023-04-08T06:09:36;101241.75;;;9.26;100.00
9249;BME280;4660;41.768;26.198;2023-04-08T06:12:04;101303.22;;;9.76;100.00
9249;BME280;4660;41.768;26.198;2023-04-08T06:14:30;101329.59;;;10.04;100.00
9249;BME280;4660;41.768;26.198;2023-04-08T06:17:04;101286.22;;;9.64;100.00
9249;BME280;4660;41.768;26.198;2023-04-08T06:19:30;101343.06;;;9.93;100.00
9249;BME280;4660;41.768;26.198;2023-04-08T06:21:56;101347.44;;;10.28;100.00
9249;BME280;4660;41.768;26.198;2023-04-08T06:24:25;101299.53;;;9.99;100.00
9249;BME280;4660;41.768;26.198;2023-04-08T06:26:55;101339.00;;;10.10;100.00
9249;BME280;4660;41.768;26.198;2023-04-08T06:29:22;101303.34;;;10.08;100.00
9249;BME280;4660;41.768;26.198;2023-04-08T06:31:49;101252.13;;;10.09;100.00
9249;BME280;4660;41.768;26.198;2023-04-08T06:34:15;101267.13;;;10.34;100.00
9249;BME280;4660;41.768;26.198;2023-04-08T06:36:43;101356.38;;;10.51;100.00
9249;BME280;4660;41.768;26.198;2023-04-08T06:39:10;101275.84;;;10.04;100.00
9249;BME280;4660;41.768;26.198;2023-04-08T06:41:38;101237.97;;;9.85;100.00
9249;BME280;4660;41.768;26.198;2023-04-08T06:44:04;101359.66;;;10.54;100.00
9249;BME280;4660;41.768;26.198;2023-04-08T06:46:34;101269.72;;;10.25;100.00
9249;BME280;4660;41.768;26.198;2023-04-08T06:49:03;101302.16;;;10.55;100.00
9249;BME280;4660;41.768;26.198;2023-04-08T06:51:32;101245.53;;;10.25;100.00
9249;BME280;4660;41.768;26.198;2023-04-08T06:53:58;101294.75;;;10.80;100.00
9249;BME280;4660;41.768;26.198;2023-04-08T06:56:29;101353.31;;;11.40;100.00
9249;BME280;4660;41.768;26.198;2023-04-08T06:58:56;101296.50;;;11.22;100.00
9249;BME280;4660;41.768;26.198;2023-04-08T07:01:23;101362.72;;;11.46;100.00
9249;BME280;4660;41.768;26.198;2023-04-08T07:03:49;101251.03;;;10.87;100.00
9249;BME280;4660;41.768;26.198;2023-04-08T07:06:35;101357.41;;;11.55;100.00
9249;BME280;4660;41.768;26.198;2023-04-08T07:09:11;101376.06;;;11.68;100.00
9249;BME280;4660;41.768;26.198;2023-04-08T07:11:37;101333.63;;;11.40;100.00
9249;BME280;4660;41.768;26.198;2023-04-08T07:14:11;101317.59;;;11.38;100.00
9249;BME280;4660;41.768;26.198;2023-04-08T07:16:42;101337.34;;;11.69;100.00
9249;BME280;4660;41.768;26.198;2023-04-08T07:19:13;101357.00;;;12.02;100.00
9249;BME280;4660;41.768;26.198;2023-04-08T07:21:39;101324.56;;;11.71;100.00
9249;BME280;4660;41.768;26.198;2023-04-08T07:24:06;101298.06;;;11.76;100.00
9249;BME280;4660;41.768;26.198;2023-04-08T07:26:32;101321.13;;;11.60;100.00
9249;BME280;4660;41.768;26.198;2023-04-08T07:28:58;101299.25;;;11.53;100.00
9249;BME280;4660;41.768;26.198;2023-04-08T07:31:29;101349.25;;;11.88;100.00
9249;BME280;4660;41.768;26.198;2023-04-08T07:34:00;101345.41;;;11.80;100.00
9249;BME280;4660;41.768;26.198;2023-04-08T07:36:28;101266.69;;;11.66;100.00
9249;BME280;4660;41.768;26.198;2023-04-08T07:38:56;101220.19;;;11.43;100.00
9249;BME280;4660;41.768;26.198;2023-04-08T07:41:22;101341.53;;;12.44;100.00
9249;BME280;4660;41.768;26.198;2023-04-08T07:43:48;101295.16;;;12.20;100.00
9249;BME280;4660;41.768;26.198;2023-04-08T07:46:21;101247.84;;;12.06;100.00
9249;BME280;4660;41.768;26.198;2023-04-08T07:48:49;101253.97;;;12.08;100.00
9249;BME280;4660;41.768;26.198;2023-04-08T07:51:18;101310.69;;;12.47;100.00
9249;BME280;4660;41.768;26.198;2023-04-08T07:53:46;101278.03;;;12.50;100.00
9249;BME280;4660;41.768;26.198;2023-04-08T07:56:16;101349.25;;;12.78;100.00
9249;BME280;4660;41.768;26.198;2023-04-08T07:58:42;101363.78;;;12.96;100.00
9249;BME280;4660;41.768;26.198;2023-04-08T08:01:18;101368.47;;;13.04;100.00
9249;BME280;4660;41.768;26.198;2023-04-08T08:03:48;101302.50;;;12.97;100.00
9249;BME280;4660;41.768;26.198;2023-04-08T08:06:15;101372.34;;;13.20;100.00
9249;BME280;4660;41.768;26.198;2023-04-08T08:08:41;101361.53;;;13.30;100.00
9249;BME280;4660;41.768;26.198;2023-04-08T08:11:15;101360.09;;;13.55;100.00
9249;BME280;4660;41.768;26.198;2023-04-08T08:13:42;101320.44;;;13.27;100.00
9249;BME280;4660;41.768;26.198;2023-04-08T08:16:10;101357.22;;;13.57;100.00
9249;BME280;4660;41.768;26.198;2023-04-08T08:18:39;101346.28;;;13.48;100.00
9249;BME280;4660;41.768;26.198;2023-04-08T08:21:31;101342.28;;;13.62;100.00
9249;BME280;4660;41.768;26.198;2023-04-08T08:23:58;101341.72;;;13.59;100.00
9249;BME280;4660;41.768;26.198;2023-04-08T08:26:25;101312.63;;;13.80;100.00
9249;BME280;4660;41.768;26.198;2023-04-08T08:28:53;101338.75;;;13.99;100.00
9249;BME280;4660;41.768;26.198;2023-04-08T08:31:24;101343.03;;;13.92;100.00
9249;BME280;4660;41.768;26.198;2023-04-08T08:34:16;101298.38;;;13.78;100.00
9249;BME280;4660;41.768;26.198;2023-04-08T08:36:42;101275.72;;;13.52;100.00
9249;BME280;4660;41.768;26.198;2023-04-08T08:39:10;101333.53;;;13.88;100.00
9249;BME280;4660;41.768;26.198;2023-04-08T08:41:37;101261.16;;;13.62;100.00
9249;BME280;4660;41.768;26.198;2023-04-08T08:44:07;101256.84;;;13.79;100.00
9249;BME280;4660;41.768;26.198;2023-04-08T08:46:34;101285.09;;;13.94;100.00
9249;BME280;4660;41.768;26.198;2023-04-08T08:49:12;101328.78;;;14.27;100.00
9249;BME280;4660;41.768;26.198;2023-04-08T08:51:45;101200.84;;;13.62;100.00
9249;BME280;4660;41.768;26.198;2023-04-08T08:54:31;101306.38;;;14.35;100.00
9249;BME280;4660;41.768;26.198;2023-04-08T08:57:19;101321.00;;;14.51;100.00
9249;BME280;4660;41.768;26.198;2023-04-08T08:59:52;101249.56;;;14.07;100.00
9249;BME280;4660;41.768;26.198;2023-04-08T09:02:48;101321.50;;;14.82;100.00
9249;BME280;4660;41.768;26.198;2023-04-08T09:05:20;101230.25;;;14.47;100.00
9249;BME280;4660;41.768;26.198;2023-04-08T09:07:48;101275.75;;;14.62;100.00
9249;BME280;4660;41.768;26.198;2023-04-08T09:10:36;101305.31;;;14.91;100.00
9249;BME280;4660;41.768;26.198;2023-04-08T09:13:04;101197.94;;;14.18;100.00
9249;BME280;4660;41.768;26.198;2023-04-08T09:15:32;101281.56;;;14.84;100.00
9249;BME280;4660;41.768;26.198;2023-04-08T09:18:07;101208.16;;;14.42;100.00
9249;BME280;4660;41.768;26.198;2023-04-08T09:20:53;101245.97;;;14.62;100.00
9249;BME280;4660;41.768;26.198;2023-04-08T09:23:21;101289.91;;;15.09;100.00
9249;BME280;4660;41.768;26.198;2023-04-08T09:26:05;101284.22;;;15.38;100.00
9249;BME280;4660;41.768;26.198;2023-04-08T09:28:33;101247.63;;;15.16;100.00
9249;BME280;4660;41.768;26.198;2023-04-08T09:31:29;101290.53;;;15.47;100.00
9249;BME280;4660;41.768;26.198;2023-04-08T09:34:27;101257.69;;;15.24;100.00
9249;BME280;4660;41.768;26.198;2023-04-08T09:37:03;101201.63;;;14.80;100.00
9249;BME280;4660;41.768;26.198;2023-04-08T09:39:35;101220.31;;;15.09;100.00
9249;BME280;4660;41.768;26.198;2023-04-08T09:42:21;101309.94;;;15.60;100.00
9249;BME280;4660;41.768;26.198;2023-04-08T09:44:52;101324.50;;;15.77;100.00
9249;BME280;4660;41.768;26.198;2023-04-08T09:47:24;101267.75;;;15.57;92.48
9249;BME280;4660;41.768;26.198;2023-04-08T09:50:01;101278.38;;;15.77;92.31
9249;BME280;4660;41.768;26.198;2023-04-08T09:52:44;101285.81;;;16.01;94.66
9249;BME280;4660;41.768;26.198;2023-04-08T09:55:15;101250.72;;;15.73;93.27
9249;BME280;4660;41.768;26.198;2023-04-08T09:57:57;101278.06;;;15.80;91.51
9249;BME280;4660;41.768;26.198;2023-04-08T10:00:33;101236.25;;;15.38;88.45
9249;BME280;4660;41.768;26.198;2023-04-08T10:05:57;101315.94;;;16.32;88.75
9249;BME280;4660;41.768;26.198;2023-04-08T10:08:25;101284.38;;;16.31;90.45
9249;BME280;4660;41.768;26.198;2023-04-08T10:10:54;101296.31;;;16.46;91.32
9249;BME280;4660;41.768;26.198;2023-04-08T10:13:23;101230.91;;;15.81;90.51
9249;BME280;4660;41.768;26.198;2023-04-08T10:16:19;101224.97;;;15.85;91.18
9249;BME280;4660;41.768;26.198;2023-04-08T10:18:58;101167.69;;;15.54;89.20
9249;BME280;4660;41.768;26.198;2023-04-08T10:21:47;101297.63;;;16.42;87.58
9249;BME280;4660;41.768;26.198;2023-04-08T10:24:37;101215.41;;;16.07;88.14
9249;BME280;4660;41.768;26.198;2023-04-08T10:27:47;101203.91;;;16.21;86.62
9249;BME280;4660;41.768;26.198;2023-04-08T10:30:44;101281.28;;;16.92;86.94
9249;BME280;4660;41.768;26.198;2023-04-08T10:33:33;101289.97;;;17.04;83.06
9249;BME280;4660;41.768;26.198;2023-04-08T10:36:16;101295.91;;;17.40;83.25
9249;BME280;4660;41.768;26.198;2023-04-08T10:38:42;101273.47;;;17.05;83.98
9249;BME280;4660;41.768;26.198;2023-04-08T10:41:12;101278.44;;;17.10;84.18
9249;BME280;4660;41.768;26.198;2023-04-08T10:43:51;101288.59;;;17.00;85.62
9249;BME280;4660;41.768;26.198;2023-04-08T10:46:18;101284.19;;;17.07;85.42
9249;BME280;4660;41.768;26.198;2023-04-08T10:48:58;101268.22;;;16.88;85.58
9249;BME280;4660;41.768;26.198;2023-04-08T10:51:29;101178.66;;;16.37;85.91
9249;BME280;4660;41.768;26.198;2023-04-08T10:54:11;101251.91;;;16.88;83.98
9249;BME280;4660;41.768;26.198;2023-04-08T10:56:57;101266.34;;;16.88;82.27
9249;BME280;4660;41.768;26.198;2023-04-08T10:59:30;101281.81;;;17.04;81.22
9249;BME280;4660;41.768;26.198;2023-04-08T11:02:11;101276.06;;;17.15;78.79
9249;BME280;4660;41.768;26.198;2023-04-08T11:04:45;101287.53;;;17.50;78.40
9249;BME280;4660;41.768;26.198;2023-04-08T11:07:13;101226.91;;;17.33;76.66
9249;BME280;4660;41.768;26.198;2023-04-08T11:09:42;101204.63;;;17.21;77.17
9249;BME280;4660;41.768;26.198;2023-04-08T11:12:14;101226.72;;;17.34;77.67
9249;BME280;4660;41.768;26.198;2023-04-08T11:14:59;101264.94;;;17.57;79.65
9249;BME280;4660;41.768;26.198;2023-04-08T11:17:28;101138.09;;;16.85;79.73
9249;BME280;4660;41.768;26.198;2023-04-08T11:19:55;101269.53;;;17.65;81.21
9249;BME280;4660;41.768;26.198;2023-04-08T11:22:28;101270.56;;;17.72;79.25
9249;BME280;4660;41.768;26.198;2023-04-08T11:24:56;101163.53;;;17.24;76.79
9249;BME280;4660;41.768;26.198;2023-04-08T11:27:56;101156.25;;;17.56;77.58
9249;BME280;4660;41.768;26.198;2023-04-08T17:50:27;101186.72;;;14.13;95.24
9249;BME280;4660;41.768;26.198;2023-04-08T20:35:28;101275.97;;;10.57;100.00
9249;BME280;4660;41.768;26.198;2023-04-08T20:38:45;101370.72;;;10.83;100.00
9249;BME280;4660;41.768;26.198;2023-04-08T20:46:46;101277.31;;;10.08;100.00
9249;BME280;4660;41.768;26.198;2023-04-08T20:49:53;101367.72;;;10.54;100.00
9249;BME280;4660;41.768;26.198;2023-04-08T21:03:03;101330.47;;;10.27;100.00
9249;BME280;4660;41.768;26.198;2023-04-08T21:05:29;101373.59;;;10.48;100.00
9249;BME280;4660;41.768;26.198;2023-04-08T21:07:54;101340.63;;;10.24;100.00
9249;BME280;4660;41.768;26.198;2023-04-08T21:10:20;101380.72;;;10.38;100.00
9249;BME280;4660;41.768;26.198;2023-04-08T21:12:45;101376.78;;;10.53;100.00
9249;BME280;4660;41.768;26.198;2023-04-08T21:15:11;101370.41;;;10.54;100.00
9249;BME280;4660;41.768;26.198;2023-04-08T21:17:36;101371.53;;;10.52;100.00
9249;BME280;4660;41.768;26.198;2023-04-08T21:20:02;101373.38;;;10.40;100.00
9249;BME280;4660;41.768;26.198;2023-04-08T21:22:28;101356.38;;;10.17;100.00
9249;BME280;4660;41.768;26.198;2023-04-08T21:24:54;101364.56;;;10.04;100.00
9249;BME280;4660;41.768;26.198;2023-04-08T21:27:23;101344.38;;;9.99;100.00
9249;BME280;4660;41.768;26.198;2023-04-08T21:29:51;101363.94;;;10.12;100.00
9249;BME280;4660;41.768;26.198;2023-04-08T21:32:17;101365.28;;;10.17;100.00
9249;BME280;4660;41.768;26.198;2023-04-08T21:34:43;101365.31;;;10.29;100.00
9249;BME280;4660;41.768;26.198;2023-04-08T21:37:10;101350.72;;;10.20;100.00
9249;BME280;4660;41.768;26.198;2023-04-08T21:39:35;101347.81;;;10.12;100.00
9249;BME280;4660;41.768;26.198;2023-04-08T21:42:00;101344.41;;;9.87;100.00
9249;BME280;4660;41.768;26.198;2023-04-08T21:44:27;101346.22;;;9.76;100.00
9249;BME280;4660;41.768;26.198;2023-04-08T21:46:53;101332.75;;;9.53;100.00
9249;BME280;4660;41.768;26.198;2023-04-08T21:49:19;101349.47;;;9.57;100.00
9249;BME280;4660;41.768;26.198;2023-04-08T21:51:45;101320.28;;;9.52;100.00
9249;BME280;4660;41.768;26.198;2023-04-08T21:54:10;101314.69;;;9.67;100.00
9249;BME280;4660;41.768;26.198;2023-04-08T21:56:37;101343.78;;;9.95;100.00
9249;BME280;4660;41.768;26.198;2023-04-08T21:59:02;101346.00;;;10.01;100.00
9249;BME280;4660;41.768;26.198;2023-04-08T22:01:29;101351.72;;;9.97;100.00
9249;BME280;4660;41.768;26.198;2023-04-08T22:03:54;101342.75;;;9.62;100.00
9249;BME280;4660;41.768;26.198;2023-04-08T22:06:20;101344.47;;;9.52;100.00
9249;BME280;4660;41.768;26.198;2023-04-08T22:08:46;101329.16;;;9.42;100.00
9249;BME280;4660;41.768;26.198;2023-04-08T22:11:11;101329.00;;;9.21;100.00
9249;BME280;4660;41.768;26.198;2023-04-08T22:13:37;101339.19;;;9.40;100.00
9249;BME280;4660;41.768;26.198;2023-04-08T22:16:03;101339.09;;;9.52;100.00
9249;BME280;4660;41.768;26.198;2023-04-08T22:18:28;101339.59;;;9.57;100.00
9249;BME280;4660;41.768;26.198;2023-04-08T22:20:54;101350.13;;;9.72;100.00
9249;BME280;4660;41.768;26.198;2023-04-08T22:23:19;101335.72;;;9.73;100.00
9249;BME280;4660;41.768;26.198;2023-04-08T22:25:48;101338.09;;;9.42;100.00
9249;BME280;4660;41.768;26.198;2023-04-08T22:28:14;101351.03;;;9.37;100.00
9249;BME280;4660;41.768;26.198;2023-04-08T22:30:41;101360.53;;;9.30;100.00
9249;BME280;4660;41.768;26.198;2023-04-08T22:33:06;101364.66;;;9.23;100.00
9249;BME280;4660;41.768;26.198;2023-04-08T22:35:32;101348.63;;;9.10;100.00
9249;BME280;4660;41.768;26.198;2023-04-08T22:37:57;101341.53;;;9.44;100.00
9249;BME280;4660;41.768;26.198;2023-04-08T22:40:23;101330.63;;;9.34;100.00
9249;BME280;4660;41.768;26.198;2023-04-08T22:42:49;101343.94;;;9.36;100.00
9249;BME280;4660;41.768;26.198;2023-04-08T22:45:14;101342.78;;;9.16;100.00
9249;BME280;4660;41.768;26.198;2023-04-08T22:47:40;101340.34;;;8.89;100.00
9249;BME280;4660;41.768;26.198;2023-04-08T22:50:06;101348.06;;;8.94;100.00
9249;BME280;4660;41.768;26.198;2023-04-08T22:52:32;101335.50;;;8.70;100.00
9249;BME280;4660;41.768;26.198;2023-04-08T22:54:57;101345.78;;;8.76;100.00
9249;BME280;4660;41.768;26.198;2023-04-08T22:57:22;101335.00;;;8.89;100.00
9249;BME280;4660;41.768;26.198;2023-04-08T22:59:48;101319.03;;;8.99;100.00
9249;BME280;4660;41.768;26.198;2023-04-08T23:02:13;101332.91;;;9.28;100.00
9249;BME280;4660;41.768;26.198;2023-04-08T23:04:39;101327.59;;;9.39;100.00
9249;BME280;4660;41.768;26.198;2023-04-08T23:07:05;101335.47;;;9.18;100.00
9249;BME280;4660;41.768;26.198;2023-04-08T23:09:30;101338.66;;;9.23;100.00
9249;BME280;4660;41.768;26.198;2023-04-08T23:11:56;101336.00;;;8.99;100.00
9249;BME280;4660;41.768;26.198;2023-04-08T23:14:22;101311.94;;;8.63;100.00
9249;BME280;4660;41.768;26.198;2023-04-08T23:16:48;101315.19;;;8.55;100.00
9249;BME280;4660;41.768;26.198;2023-04-08T23:19:13;101315.97;;;8.68;100.00
9249;BME280;4660;41.768;26.198;2023-04-08T23:21:39;101309.47;;;8.83;100.00